sensor_id;sensor_type;location;lat;lon;timestamp;P1;durP1;ratioP1;P2;durP2;ratioP2
43146;SDS011;28752;48.266;7.402;2023-12-04T00:00:41;27.73;;;14.85;;
43146;SDS011;28752;48.266;7.402;2023-12-04T00:03:06;27.80;;;15.00;;
43146;SDS011;28752;48.266;7.402;2023-12-04T00:05:31;28.13;;;14.17;;
43146;SDS011;28752;48.266;7.402;2023-12-04T00:07:57;27.23;;;15.20;;
43146;SDS011;28752;48.266;7.402;2023-12-04T00:10:22;28.67;;;15.87;;
43146;SDS011;28752;48.266;7.402;2023-12-04T00:12:47;31.37;;;15.33;;
43146;SDS011;28752;48.266;7.402;2023-12-04T00:15:13;28.53;;;14.77;;
43146;SDS011;28752;48.266;7.402;2023-12-04T00:17:38;27.00;;;13.93;;
43146;SDS011;28752;48.266;7.402;2023-12-04T00:20:07;26.48;;;15.30;;
43146;SDS011;28752;48.266;7.402;2023-12-04T00:22:34;27.80;;;15.05;;
43146;SDS011;28752;48.266;7.402;2023-12-04T00:24:59;28.30;;;15.35;;
43146;SDS011;28752;48.266;7.402;2023-12-04T00:27:25;27.20;;;14.50;;
43146;SDS011;28752;48.266;7.402;2023-12-04T00:29:52;27.10;;;14.68;;
43146;SDS011;28752;48.266;7.402;2023-12-04T00:32:18;27.08;;;14.70;;
43146;SDS011;28752;48.266;7.402;2023-12-04T00:34:43;25.37;;;13.40;;
43146;SDS011;28752;48.266;7.402;2023-12-04T00:37:08;25.07;;;13.40;;
43146;SDS011;28752;48.266;7.402;2023-12-04T00:39:34;28.83;;;14.60;;
43146;SDS011;28752;48.266;7.402;2023-12-04T00:41:59;25.43;;;13.47;;
43146;SDS011;28752;48.266;7.402;2023-12-04T00:44:24;27.63;;;14.40;;
43146;SDS011;28752;48.266;7.402;2023-12-04T00:46:49;23.13;;;13.20;;
43146;SDS011;28752;48.266;7.402;2023-12-04T00:49:15;28.00;;;13.57;;
43146;SDS011;28752;48.266;7.402;2023-12-04T00:51:40;25.40;;;13.77;;
43146;SDS011;28752;48.266;7.402;2023-12-04T00:54:05;27.33;;;14.30;;
43146;SDS011;28752;48.266;7.402;2023-12-04T00:56:31;24.73;;;13.23;;
43146;SDS011;28752;48.266;7.402;2023-12-04T00:58:56;24.97;;;12.83;;
43146;SDS011;28752;48.266;7.402;2023-12-04T01:01:22;23.67;;;12.73;;
43146;SDS011;28752;48.266;7.402;2023-12-04T01:03:47;22.27;;;12.63;;
43146;SDS011;28752;48.266;7.402;2023-12-04T01:06:22;29.73;;;14.20;;
43146;SDS011;28752;48.266;7.402;2023-12-04T01:08:48;23.08;;;13.50;;
43146;SDS011;28752;48.266;7.402;2023-12-04T01:13:40;23.75;;;13.38;;
43146;SDS011;28752;48.266;7.402;2023-12-04T01:16:06;27.80;;;14.90;;
43146;SDS011;28752;48.266;7.402;2023-12-04T01:18:32;25.85;;;14.40;;
43146;SDS011;28752;48.266;7.402;2023-12-04T01:20:57;33.87;;;15.40;;
43146;SDS011;28752;48.266;7.402;2023-12-04T01:23:23;29.50;;;14.77;;
43146;SDS011;28752;48.266;7.402;2023-12-04T01:25:48;28.20;;;14.70;;
43146;SDS011;28752;48.266;7.402;2023-12-04T01:28:13;25.57;;;12.97;;
43146;SDS011;28752;48.266;7.402;2023-12-04T01:30:39;26.48;;;13.70;;
43146;SDS011;28752;48.266;7.402;2023-12-04T01:33:05;24.92;;;14.23;;
43146;SDS011;28752;48.266;7.402;2023-12-04T01:35:30;26.63;;;15.07;;
43146;SDS011;28752;48.266;7.402;2023-12-04T01:37:55;27.53;;;14.30;;
43146;SDS011;28752;48.266;7.402;2023-12-04T01:40:21;23.50;;;13.07;;
43146;SDS011;28752;48.266;7.402;2023-12-04T01:42:46;27.92;;;13.60;;
43146;SDS011;28752;48.266;7.402;2023-12-04T01:45:12;24.73;;;15.03;;
43146;SDS011;28752;48.266;7.402;2023-12-04T01:47:38;28.88;;;14.98;;
43146;SDS011;28752;48.266;7.402;2023-12-04T01:50:04;28.63;;;14.40;;
43146;SDS011;28752;48.266;7.402;2023-12-04T01:52:32;29.42;;;13.95;;
43146;SDS011;28752;48.266;7.402;2023-12-04T01:54:57;28.05;;;13.70;;
43146;SDS011;28752;48.266;7.402;2023-12-04T01:57:23;27.02;;;14.48;;
43146;SDS011;28752;48.266;7.402;2023-12-04T01:59:48;27.93;;;15.40;;
43146;SDS011;28752;48.266;7.402;2023-12-04T02:02:14;27.43;;;13.50;;
43146;SDS011;28752;48.266;7.402;2023-12-04T02:04:39;29.43;;;13.77;;
43146;SDS011;28752;48.266;7.402;2023-12-04T02:07:04;29.27;;;15.20;;
43146;SDS011;28752;48.266;7.402;2023-12-04T02:09:30;29.73;;;14.67;;
43146;SDS011;28752;48.266;7.402;2023-12-04T02:11:55;24.83;;;12.48;;
43146;SDS011;28752;48.266;7.402;2023-12-04T02:16:47;22.58;;;12.02;;
43146;SDS011;28752;48.266;7.402;2023-12-04T02:21:39;24.83;;;12.82;;
43146;SDS011;28752;48.266;7.402;2023-12-04T02:24:04;19.83;;;10.80;;
43146;SDS011;28752;48.266;7.402;2023-12-04T02:26:32;22.08;;;10.90;;
43146;SDS011;28752;48.266;7.402;2023-12-04T02:29:00;20.08;;;11.45;;
43146;SDS011;28752;48.266;7.402;2023-12-04T02:31:30;20.13;;;11.07;;
43146;SDS011;28752;48.266;7.402;2023-12-04T02:33:58;18.48;;;10.63;;
43146;SDS011;28752;48.266;7.402;2023-12-04T02:36:25;20.45;;;10.80;;
43146;SDS011;28752;48.266;7.402;2023-12-04T02:38:52;20.20;;;9.95;;
43146;SDS011;28752;48.266;7.402;2023-12-04T02:41:18;21.25;;;10.43;;
43146;SDS011;28752;48.266;7.402;2023-12-04T02:43:44;17.88;;;11.10;;
43146;SDS011;28752;48.266;7.402;2023-12-04T02:46:09;19.23;;;11.03;;
43146;SDS011;28752;48.266;7.402;2023-12-04T02:48:35;18.93;;;9.97;;
43146;SDS011;28752;48.266;7.402;2023-12-04T02:51:00;35.17;;;16.23;;
43146;SDS011;28752;48.266;7.402;2023-12-04T02:53:26;40.67;;;18.00;;
43146;SDS011;28752;48.266;7.402;2023-12-04T02:55:51;20.63;;;12.10;;
43146;SDS011;28752;48.266;7.402;2023-12-04T02:58:17;23.97;;;15.50;;
43146;SDS011;28752;48.266;7.402;2023-12-04T03:00:43;22.27;;;12.70;;
43146;SDS011;28752;48.266;7.402;2023-12-04T03:03:08;21.60;;;12.50;;
43146;SDS011;28752;48.266;7.402;2023-12-04T03:05:33;19.03;;;11.23;;
43146;SDS011;28752;48.266;7.402;2023-12-04T03:07:58;17.83;;;10.57;;
43146;SDS011;28752;48.266;7.402;2023-12-04T03:10:24;17.23;;;9.93;;
43146;SDS011;28752;48.266;7.402;2023-12-04T03:12:49;16.87;;;10.07;;
43146;SDS011;28752;48.266;7.402;2023-12-04T03:15:15;16.93;;;9.60;;
43146;SDS011;28752;48.266;7.402;2023-12-04T03:17:40;15.40;;;8.40;;
43146;SDS011;28752;48.266;7.402;2023-12-04T03:20:05;14.53;;;9.23;;
43146;SDS011;28752;48.266;7.402;2023-12-04T03:22:33;15.18;;;8.10;;
43146;SDS011;28752;48.266;7.402;2023-12-04T03:24:59;15.10;;;7.75;;
43146;SDS011;28752;48.266;7.402;2023-12-04T03:27:24;14.47;;;8.47;;
43146;SDS011;28752;48.266;7.402;2023-12-04T03:29:49;15.83;;;8.83;;
43146;SDS011;28752;48.266;7.402;2023-12-04T03:32:15;15.07;;;8.83;;
43146;SDS011;28752;48.266;7.402;2023-12-04T03:34:40;14.97;;;8.00;;
43146;SDS011;28752;48.266;7.402;2023-12-04T03:37:05;14.37;;;7.90;;
43146;SDS011;28752;48.266;7.402;2023-12-04T03:39:31;16.70;;;9.43;;
43146;SDS011;28752;48.266;7.402;2023-12-04T03:41:56;16.10;;;8.77;;
43146;SDS011;28752;48.266;7.402;2023-12-04T03:44:22;15.13;;;8.47;;
43146;SDS011;28752;48.266;7.402;2023-12-04T03:46:47;14.98;;;8.05;;
43146;SDS011;28752;48.266;7.402;2023-12-04T03:49:13;14.37;;;8.27;;
43146;SDS011;28752;48.266;7.402;2023-12-04T03:51:38;14.97;;;8.57;;
43146;SDS011;28752;48.266;7.402;2023-12-04T03:54:03;16.37;;;8.67;;
43146;SDS011;28752;48.266;7.402;2023-12-04T03:56:29;14.70;;;8.60;;
43146;SDS011;28752;48.266;7.402;2023-12-04T03:58:54;14.75;;;8.10;;
43146;SDS011;28752;48.266;7.402;2023-12-04T04:01:20;14.23;;;8.37;;
43146;SDS011;28752;48.266;7.402;2023-12-04T04:03:45;16.27;;;8.53;;
43146;SDS011;28752;48.266;7.402;2023-12-04T04:08:37;16.15;;;7.80;;
43146;SDS011;28752;48.266;7.402;2023-12-04T04:11:02;16.17;;;8.47;;
43146;SDS011;28752;48.266;7.402;2023-12-04T04:13:27;15.35;;;8.27;;
43146;SDS011;28752;48.266;7.402;2023-12-04T04:15:53;14.40;;;8.13;;
43146;SDS011;28752;48.266;7.402;2023-12-04T04:18:18;16.40;;;8.50;;
43146;SDS011;28752;48.266;7.402;2023-12-04T04:20:43;15.03;;;8.43;;
43146;SDS011;28752;48.266;7.402;2023-12-04T04:23:09;16.97;;;9.13;;
43146;SDS011;28752;48.266;7.402;2023-12-04T04:25:34;14.50;;;8.13;;
43146;SDS011;28752;48.266;7.402;2023-12-04T04:27:59;15.10;;;8.20;;
43146;SDS011;28752;48.266;7.402;2023-12-04T04:30:25;17.20;;;9.67;;
43146;SDS011;28752;48.266;7.402;2023-12-04T04:32:50;15.07;;;8.30;;
43146;SDS011;28752;48.266;7.402;2023-12-04T04:35:15;16.33;;;9.33;;
43146;SDS011;28752;48.266;7.402;2023-12-04T04:37:41;17.60;;;9.70;;
43146;SDS011;28752;48.266;7.402;2023-12-04T04:40:06;17.20;;;9.63;;
43146;SDS011;28752;48.266;7.402;2023-12-04T04:42:32;16.40;;;9.65;;
43146;SDS011;28752;48.266;7.402;2023-12-04T04:44:57;16.70;;;9.23;;
43146;SDS011;28752;48.266;7.402;2023-12-04T04:47:23;17.60;;;10.23;;
43146;SDS011;28752;48.266;7.402;2023-12-04T04:49:48;16.17;;;9.67;;
43146;SDS011;28752;48.266;7.402;2023-12-04T04:52:13;16.93;;;8.93;;
43146;SDS011;28752;48.266;7.402;2023-12-04T04:54:39;18.23;;;9.33;;
43146;SDS011;28752;48.266;7.402;2023-12-04T04:57:04;18.70;;;10.60;;
43146;SDS011;28752;48.266;7.402;2023-12-04T04:59:29;18.23;;;10.57;;
43146;SDS011;28752;48.266;7.402;2023-12-04T05:01:57;16.23;;;8.57;;
43146;SDS011;28752;48.266;7.402;2023-12-04T05:04:22;16.20;;;9.35;;
43146;SDS011;28752;48.266;7.402;2023-12-04T05:06:48;17.60;;;9.50;;
43146;SDS011;28752;48.266;7.402;2023-12-04T05:09:13;16.73;;;8.90;;
43146;SDS011;28752;48.266;7.402;2023-12-04T05:11:38;15.17;;;8.90;;
43146;SDS011;28752;48.266;7.402;2023-12-04T05:14:04;16.83;;;9.17;;
43146;SDS011;28752;48.266;7.402;2023-12-04T05:16:29;13.55;;;8.05;;
43146;SDS011;28752;48.266;7.402;2023-12-04T05:18:54;11.67;;;7.07;;
43146;SDS011;28752;48.266;7.402;2023-12-04T05:21:20;12.60;;;7.03;;
43146;SDS011;28752;48.266;7.402;2023-12-04T05:23:45;13.77;;;7.73;;
43146;SDS011;28752;48.266;7.402;2023-12-04T05:26:11;13.87;;;7.73;;
43146;SDS011;28752;48.266;7.402;2023-12-04T05:28:36;13.90;;;7.77;;
43146;SDS011;28752;48.266;7.402;2023-12-04T05:31:01;13.00;;;8.10;;
43146;SDS011;28752;48.266;7.402;2023-12-04T05:33:27;13.57;;;7.93;;
43146;SDS011;28752;48.266;7.402;2023-12-04T05:35:52;15.70;;;8.43;;
43146;SDS011;28752;48.266;7.402;2023-12-04T05:38:18;14.27;;;8.43;;
43146;SDS011;28752;48.266;7.402;2023-12-04T05:40:43;23.00;;;10.77;;
43146;SDS011;28752;48.266;7.402;2023-12-04T05:43:09;39.23;;;16.60;;
43146;SDS011;28752;48.266;7.402;2023-12-04T05:45:34;82.50;;;29.33;;
43146;SDS011;28752;48.266;7.402;2023-12-04T05:47:59;133.73;;;43.97;;
43146;SDS011;28752;48.266;7.402;2023-12-04T05:50:25;91.17;;;32.30;;
43146;SDS011;28752;48.266;7.402;2023-12-04T05:52:50;75.27;;;27.50;;
43146;SDS011;28752;48.266;7.402;2023-12-04T05:55:16;79.78;;;26.42;;
43146;SDS011;28752;48.266;7.402;2023-12-04T05:57:41;66.50;;;23.43;;
43146;SDS011;28752;48.266;7.402;2023-12-04T06:00:07;52.65;;;18.90;;
43146;SDS011;28752;48.266;7.402;2023-12-04T06:02:41;31.88;;;14.98;;
43146;SDS011;28752;48.266;7.402;2023-12-04T06:05:07;29.63;;;13.30;;
43146;SDS011;28752;48.266;7.402;2023-12-04T06:07:33;28.80;;;14.43;;
43146;SDS011;28752;48.266;7.402;2023-12-04T06:09:59;28.50;;;14.25;;
43146;SDS011;28752;48.266;7.402;2023-12-04T06:12:24;28.13;;;14.65;;
43146;SDS011;28752;48.266;7.402;2023-12-04T06:14:50;28.20;;;14.43;;
43146;SDS011;28752;48.266;7.402;2023-12-04T06:17:15;30.45;;;16.17;;
43146;SDS011;28752;48.266;7.402;2023-12-04T06:19:41;27.53;;;14.40;;
43146;SDS011;28752;48.266;7.402;2023-12-04T06:22:06;24.20;;;13.00;;
43146;SDS011;28752;48.266;7.402;2023-12-04T06:24:32;22.77;;;12.38;;
43146;SDS011;28752;48.266;7.402;2023-12-04T06:26:58;23.23;;;12.35;;
43146;SDS011;28752;48.266;7.402;2023-12-04T06:29:24;23.13;;;12.75;;
43146;SDS011;28752;48.266;7.402;2023-12-04T06:31:49;24.85;;;12.27;;
43146;SDS011;28752;48.266;7.402;2023-12-04T06:34:15;22.92;;;12.43;;
43146;SDS011;28752;48.266;7.402;2023-12-04T06:36:41;23.17;;;12.75;;
43146;SDS011;28752;48.266;7.402;2023-12-04T06:39:10;21.55;;;12.30;;
43146;SDS011;28752;48.266;7.402;2023-12-04T06:41:37;24.92;;;13.23;;
43146;SDS011;28752;48.266;7.402;2023-12-04T06:44:06;24.60;;;12.82;;
43146;SDS011;28752;48.266;7.402;2023-12-04T06:46:32;26.48;;;13.68;;
43146;SDS011;28752;48.266;7.402;2023-12-04T06:49:01;28.67;;;13.88;;
43146;SDS011;28752;48.266;7.402;2023-12-04T06:51:29;26.90;;;14.13;;
43146;SDS011;28752;48.266;7.402;2023-12-04T06:53:54;23.33;;;13.77;;
43146;SDS011;28752;48.266;7.402;2023-12-04T06:56:19;28.57;;;14.83;;
43146;SDS011;28752;48.266;7.402;2023-12-04T06:58:45;25.33;;;13.50;;
43146;SDS011;28752;48.266;7.402;2023-12-04T07:01:10;28.30;;;14.47;;
43146;SDS011;28752;48.266;7.402;2023-12-04T07:03:35;23.50;;;14.05;;
43146;SDS011;28752;48.266;7.402;2023-12-04T07:06:01;26.50;;;14.43;;
43146;SDS011;28752;48.266;7.402;2023-12-04T07:08:26;26.13;;;14.23;;
43146;SDS011;28752;48.266;7.402;2023-12-04T07:10:52;24.30;;;13.43;;
43146;SDS011;28752;48.266;7.402;2023-12-04T07:13:17;30.67;;;15.85;;
43146;SDS011;28752;48.266;7.402;2023-12-04T07:15:42;22.20;;;12.80;;
43146;SDS011;28752;48.266;7.402;2023-12-04T07:18:08;26.40;;;13.47;;
43146;SDS011;28752;48.266;7.402;2023-12-04T07:20:33;25.48;;;13.43;;
43146;SDS011;28752;48.266;7.402;2023-12-04T07:22:59;27.27;;;13.65;;
43146;SDS011;28752;48.266;7.402;2023-12-04T07:25:24;26.17;;;13.03;;
43146;SDS011;28752;48.266;7.402;2023-12-04T07:27:50;23.97;;;12.73;;
43146;SDS011;28752;48.266;7.402;2023-12-04T07:30:15;24.10;;;12.33;;
43146;SDS011;28752;48.266;7.402;2023-12-04T07:32:41;26.48;;;14.02;;
43146;SDS011;28752;48.266;7.402;2023-12-04T07:35:06;26.90;;;14.30;;
43146;SDS011;28752;48.266;7.402;2023-12-04T07:37:32;25.98;;;14.07;;
43146;SDS011;28752;48.266;7.402;2023-12-04T07:39:57;27.27;;;12.70;;
43146;SDS011;28752;48.266;7.402;2023-12-04T07:42:23;29.63;;;15.07;;
43146;SDS011;28752;48.266;7.402;2023-12-04T07:44:48;29.30;;;14.50;;
43146;SDS011;28752;48.266;7.402;2023-12-04T07:47:14;27.73;;;15.02;;
43146;SDS011;28752;48.266;7.402;2023-12-04T07:49:40;28.98;;;15.15;;
43146;SDS011;28752;48.266;7.402;2023-12-04T07:52:06;29.17;;;14.75;;
43146;SDS011;28752;48.266;7.402;2023-12-04T07:54:32;29.38;;;14.95;;
43146;SDS011;28752;48.266;7.402;2023-12-04T07:56:57;31.67;;;16.17;;
43146;SDS011;28752;48.266;7.402;2023-12-04T07:59:23;31.10;;;15.87;;
43146;SDS011;28752;48.266;7.402;2023-12-04T08:01:48;29.70;;;16.77;;
43146;SDS011;28752;48.266;7.402;2023-12-04T08:04:14;29.17;;;14.77;;
43146;SDS011;28752;48.266;7.402;2023-12-04T08:06:39;28.90;;;15.17;;
43146;SDS011;28752;48.266;7.402;2023-12-04T08:09:04;28.40;;;14.73;;
43146;SDS011;28752;48.266;7.402;2023-12-04T08:11:35;28.13;;;14.75;;
43146;SDS011;28752;48.266;7.402;2023-12-04T08:14:01;28.63;;;15.13;;
43146;SDS011;28752;48.266;7.402;2023-12-04T08:16:26;27.13;;;14.40;;
43146;SDS011;28752;48.266;7.402;2023-12-04T08:18:53;28.20;;;13.55;;
43146;SDS011;28752;48.266;7.402;2023-12-04T08:21:19;24.48;;;13.95;;
43146;SDS011;28752;48.266;7.402;2023-12-04T08:23:44;26.63;;;14.07;;
43146;SDS011;28752;48.266;7.402;2023-12-04T08:26:10;27.87;;;15.07;;
43146;SDS011;28752;48.266;7.402;2023-12-04T08:28:35;30.40;;;15.93;;
43146;SDS011;28752;48.266;7.402;2023-12-04T08:31:02;25.85;;;14.70;;
43146;SDS011;28752;48.266;7.402;2023-12-04T08:33:28;26.45;;;14.90;;
43146;SDS011;28752;48.266;7.402;2023-12-04T08:35:54;28.35;;;14.88;;
43146;SDS011;28752;48.266;7.402;2023-12-04T08:38:19;26.30;;;14.07;;
43146;SDS011;28752;48.266;7.402;2023-12-04T08:40:45;23.77;;;13.07;;
43146;SDS011;28752;48.266;7.402;2023-12-04T08:43:10;25.30;;;14.07;;
43146;SDS011;28752;48.266;7.402;2023-12-04T08:45:36;26.87;;;14.20;;
43146;SDS011;28752;48.266;7.402;2023-12-04T08:48:01;28.27;;;14.70;;
43146;SDS011;28752;48.266;7.402;2023-12-04T08:50:26;27.60;;;14.77;;
43146;SDS011;28752;48.266;7.402;2023-12-04T08:52:52;28.77;;;15.10;;
43146;SDS011;28752;48.266;7.402;2023-12-04T08:55:17;25.87;;;13.60;;
43146;SDS011;28752;48.266;7.402;2023-12-04T08:57:43;27.27;;;14.17;;
43146;SDS011;28752;48.266;7.402;2023-12-04T09:00:08;24.43;;;13.67;;
43146;SDS011;28752;48.266;7.402;2023-12-04T09:02:34;26.13;;;14.50;;
43146;SDS011;28752;48.266;7.402;2023-12-04T09:04:59;24.83;;;13.93;;
43146;SDS011;28752;48.266;7.402;2023-12-04T09:07:25;22.50;;;13.20;;
43146;SDS011;28752;48.266;7.402;2023-12-04T09:09:50;26.20;;;13.98;;
43146;SDS011;28752;48.266;7.402;2023-12-04T09:12:15;27.90;;;14.63;;
43146;SDS011;28752;48.266;7.402;2023-12-04T09:14:41;25.97;;;13.80;;
43146;SDS011;28752;48.266;7.402;2023-12-04T09:17:06;26.13;;;14.43;;
43146;SDS011;28752;48.266;7.402;2023-12-04T09:19:32;26.35;;;15.55;;
43146;SDS011;28752;48.266;7.402;2023-12-04T09:21:58;28.07;;;15.37;;
43146;SDS011;28752;48.266;7.402;2023-12-04T09:24:23;31.60;;;17.00;;
43146;SDS011;28752;48.266;7.402;2023-12-04T09:26:49;29.30;;;15.50;;
43146;SDS011;28752;48.266;7.402;2023-12-04T09:29:14;28.67;;;15.43;;
43146;SDS011;28752;48.266;7.402;2023-12-04T09:34:06;23.95;;;13.63;;
43146;SDS011;28752;48.266;7.402;2023-12-04T09:36:33;26.13;;;13.80;;
43146;SDS011;28752;48.266;7.402;2023-12-04T09:38:58;25.52;;;13.80;;
43146;SDS011;28752;48.266;7.402;2023-12-04T09:41:24;28.60;;;16.17;;
43146;SDS011;28752;48.266;7.402;2023-12-04T09:43:49;30.15;;;15.80;;
43146;SDS011;28752;48.266;7.402;2023-12-04T09:46:16;27.27;;;14.30;;
43146;SDS011;28752;48.266;7.402;2023-12-04T09:48:43;26.55;;;14.27;;
43146;SDS011;28752;48.266;7.402;2023-12-04T09:51:12;29.55;;;14.68;;
43146;SDS011;28752;48.266;7.402;2023-12-04T09:53:39;30.95;;;13.75;;
43146;SDS011;28752;48.266;7.402;2023-12-04T09:56:25;25.40;;;13.68;;
43146;SDS011;28752;48.266;7.402;2023-12-04T09:58:53;24.08;;;13.23;;
43146;SDS011;28752;48.266;7.402;2023-12-04T10:01:30;23.70;;;12.95;;
43146;SDS011;28752;48.266;7.402;2023-12-04T10:03:59;24.38;;;12.85;;
43146;SDS011;28752;48.266;7.402;2023-12-04T10:06:28;26.48;;;13.95;;
43146;SDS011;28752;48.266;7.402;2023-12-04T10:08:54;26.52;;;13.52;;
43146;SDS011;28752;48.266;7.402;2023-12-04T10:11:22;25.05;;;13.60;;
43146;SDS011;28752;48.266;7.402;2023-12-04T10:13:48;25.85;;;14.55;;
43146;SDS011;28752;48.266;7.402;2023-12-04T10:16:13;25.37;;;14.80;;
43146;SDS011;28752;48.266;7.402;2023-12-04T10:18:38;25.27;;;13.27;;
43146;SDS011;28752;48.266;7.402;2023-12-04T10:21:04;25.70;;;14.05;;
43146;SDS011;28752;48.266;7.402;2023-12-04T10:23:39;26.50;;;14.90;;
43146;SDS011;28752;48.266;7.402;2023-12-04T10:26:06;27.05;;;15.43;;
43146;SDS011;28752;48.266;7.402;2023-12-04T10:28:32;27.52;;;14.65;;
43146;SDS011;28752;48.266;7.402;2023-12-04T10:30:58;25.30;;;13.85;;
43146;SDS011;28752;48.266;7.402;2023-12-04T10:33:24;27.20;;;15.40;;
43146;SDS011;28752;48.266;7.402;2023-12-04T10:35:53;27.80;;;15.35;;
43146;SDS011;28752;48.266;7.402;2023-12-04T10:38:20;28.63;;;14.85;;
43146;SDS011;28752;48.266;7.402;2023-12-04T10:40:45;28.60;;;15.68;;
43146;SDS011;28752;48.266;7.402;2023-12-04T10:43:15;28.03;;;15.83;;
43146;SDS011;28752;48.266;7.402;2023-12-04T10:45:42;30.70;;;16.17;;
43146;SDS011;28752;48.266;7.402;2023-12-04T10:48:10;27.60;;;15.82;;
43146;SDS011;28752;48.266;7.402;2023-12-04T10:50:40;30.48;;;16.08;;
43146;SDS011;28752;48.266;7.402;2023-12-04T10:53:07;27.90;;;15.25;;
43146;SDS011;28752;48.266;7.402;2023-12-04T10:55:35;27.80;;;15.43;;
43146;SDS011;28752;48.266;7.402;2023-12-04T10:58:02;29.13;;;15.45;;
43146;SDS011;28752;48.266;7.402;2023-12-04T11:00:30;30.55;;;16.65;;
43146;SDS011;28752;48.266;7.402;2023-12-04T11:03:05;30.75;;;16.75;;
43146;SDS011;28752;48.266;7.402;2023-12-04T11:05:33;34.42;;;18.65;;
43146;SDS011;28752;48.266;7.402;2023-12-04T11:08:02;28.92;;;16.45;;
43146;SDS011;28752;48.266;7.402;2023-12-04T11:10:31;30.30;;;16.90;;
43146;SDS011;28752;48.266;7.402;2023-12-04T11:13:00;28.65;;;16.77;;
43146;SDS011;28752;48.266;7.402;2023-12-04T11:15:31;30.60;;;16.52;;
43146;SDS011;28752;48.266;7.402;2023-12-04T11:18:05;33.72;;;18.48;;
43146;SDS011;28752;48.266;7.402;2023-12-04T11:20:33;30.13;;;17.55;;
43146;SDS011;28752;48.266;7.402;2023-12-04T11:23:06;28.20;;;16.15;;
43146;SDS011;28752;48.266;7.402;2023-12-04T11:25:33;25.60;;;15.18;;
43146;SDS011;28752;48.266;7.402;2023-12-04T11:28:00;25.42;;;14.50;;
43146;SDS011;28752;48.266;7.402;2023-12-04T11:30:27;27.73;;;15.75;;
43146;SDS011;28752;48.266;7.402;2023-12-04T11:32:54;28.15;;;15.25;;
43146;SDS011;28752;48.266;7.402;2023-12-04T11:35:22;29.52;;;16.10;;
43146;SDS011;28752;48.266;7.402;2023-12-04T11:37:52;30.23;;;14.65;;
43146;SDS011;28752;48.266;7.402;2023-12-04T11:40:18;26.25;;;15.25;;
43146;SDS011;28752;48.266;7.402;2023-12-04T11:42:43;26.42;;;14.30;;
43146;SDS011;28752;48.266;7.402;2023-12-04T11:45:09;26.85;;;15.30;;
43146;SDS011;28752;48.266;7.402;2023-12-04T11:47:51;25.45;;;14.60;;
43146;SDS011;28752;48.266;7.402;2023-12-04T11:50:20;26.88;;;14.27;;
43146;SDS011;28752;48.266;7.402;2023-12-04T11:52:47;27.75;;;16.73;;
43146;SDS011;28752;48.266;7.402;2023-12-04T11:57:41;29.42;;;15.95;;
43146;SDS011;28752;48.266;7.402;2023-12-04T12:00:10;26.40;;;15.68;;
43146;SDS011;28752;48.266;7.402;2023-12-04T12:02:38;25.45;;;15.25;;
43146;SDS011;28752;48.266;7.402;2023-12-04T12:05:05;27.08;;;14.73;;
43146;SDS011;28752;48.266;7.402;2023-12-04T12:07:32;24.52;;;14.40;;
43146;SDS011;28752;48.266;7.402;2023-12-04T12:09:58;23.70;;;13.45;;
43146;SDS011;28752;48.266;7.402;2023-12-04T12:12:24;24.17;;;14.07;;
43146;SDS011;28752;48.266;7.402;2023-12-04T12:14:51;25.02;;;14.18;;
43146;SDS011;28752;48.266;7.402;2023-12-04T12:17:16;27.30;;;14.50;;
43146;SDS011;28752;48.266;7.402;2023-12-04T12:19:42;23.57;;;14.30;;
43146;SDS011;28752;48.266;7.402;2023-12-04T12:22:07;28.63;;;15.37;;
43146;SDS011;28752;48.266;7.402;2023-12-04T12:24:32;25.13;;;14.37;;
43146;SDS011;28752;48.266;7.402;2023-12-04T12:26:58;26.77;;;14.73;;
43146;SDS011;28752;48.266;7.402;2023-12-04T12:29:24;24.50;;;14.03;;
43146;SDS011;28752;48.266;7.402;2023-12-04T12:31:50;25.77;;;14.38;;
43146;SDS011;28752;48.266;7.402;2023-12-04T12:34:16;27.63;;;15.48;;
43146;SDS011;28752;48.266;7.402;2023-12-04T12:41:33;36.85;;;20.40;;
43146;SDS011;28752;48.266;7.402;2023-12-04T12:44:00;39.00;;;22.87;;
43146;SDS011;28752;48.266;7.402;2023-12-04T12:46:25;36.08;;;21.02;;
43146;SDS011;28752;48.266;7.402;2023-12-04T12:48:51;33.73;;;20.40;;
43146;SDS011;28752;48.266;7.402;2023-12-04T12:51:17;32.15;;;19.02;;
43146;SDS011;28752;48.266;7.402;2023-12-04T12:53:43;30.02;;;18.05;;
43146;SDS011;28752;48.266;7.402;2023-12-04T12:56:09;31.65;;;21.45;;
43146;SDS011;28752;48.266;7.402;2023-12-04T12:58:35;29.27;;;18.13;;
43146;SDS011;28752;48.266;7.402;2023-12-04T13:01:00;27.17;;;16.17;;
43146;SDS011;28752;48.266;7.402;2023-12-04T13:03:30;62.45;;;31.45;;
43146;SDS011;28752;48.266;7.402;2023-12-04T13:05:56;61.03;;;31.90;;
43146;SDS011;28752;48.266;7.402;2023-12-04T13:08:22;80.72;;;35.42;;
43146;SDS011;28752;48.266;7.402;2023-12-04T13:10:47;64.60;;;31.53;;
43146;SDS011;28752;48.266;7.402;2023-12-04T13:13:13;53.40;;;25.70;;
43146;SDS011;28752;48.266;7.402;2023-12-04T13:18:06;44.58;;;23.92;;
43146;SDS011;28752;48.266;7.402;2023-12-04T13:20:31;49.83;;;25.00;;
43146;SDS011;28752;48.266;7.402;2023-12-04T13:23:00;51.85;;;26.02;;
43146;SDS011;28752;48.266;7.402;2023-12-04T13:25:26;48.22;;;23.02;;
43146;SDS011;28752;48.266;7.402;2023-12-04T13:27:51;47.03;;;24.30;;
43146;SDS011;28752;48.266;7.402;2023-12-04T13:30:18;39.10;;;21.60;;
43146;SDS011;28752;48.266;7.402;2023-12-04T13:32:44;29.10;;;16.45;;
43146;SDS011;28752;48.266;7.402;2023-12-04T13:35:10;29.37;;;17.07;;
43146;SDS011;28752;48.266;7.402;2023-12-04T13:37:36;27.17;;;15.63;;
43146;SDS011;28752;48.266;7.402;2023-12-04T13:40:03;29.83;;;17.02;;
43146;SDS011;28752;48.266;7.402;2023-12-04T13:42:34;30.17;;;16.65;;
43146;SDS011;28752;48.266;7.402;2023-12-04T13:45:19;27.95;;;15.15;;
43146;SDS011;28752;48.266;7.402;2023-12-04T13:47:48;29.33;;;15.35;;
43146;SDS011;28752;48.266;7.402;2023-12-04T13:50:13;25.83;;;15.27;;
43146;SDS011;28752;48.266;7.402;2023-12-04T13:52:39;23.40;;;13.73;;
43146;SDS011;28752;48.266;7.402;2023-12-04T13:55:05;26.27;;;13.13;;
43146;SDS011;28752;48.266;7.402;2023-12-04T13:57:40;31.08;;;13.60;;
43146;SDS011;28752;48.266;7.402;2023-12-04T14:00:30;13.05;;;7.50;;
43146;SDS011;28752;48.266;7.402;2023-12-04T14:02:56;12.03;;;7.37;;
43146;SDS011;28752;48.266;7.402;2023-12-04T14:05:32;14.40;;;7.93;;
43146;SDS011;28752;48.266;7.402;2023-12-04T14:07:58;14.82;;;8.70;;
43146;SDS011;28752;48.266;7.402;2023-12-04T14:10:24;14.57;;;9.35;;
43146;SDS011;28752;48.266;7.402;2023-12-04T14:12:51;11.80;;;7.20;;
43146;SDS011;28752;48.266;7.402;2023-12-04T14:15:16;13.03;;;7.43;;
43146;SDS011;28752;48.266;7.402;2023-12-04T14:17:42;11.87;;;5.70;;
43146;SDS011;28752;48.266;7.402;2023-12-04T14:20:07;13.23;;;6.13;;
43146;SDS011;28752;48.266;7.402;2023-12-04T14:22:41;10.40;;;5.50;;
43146;SDS011;28752;48.266;7.402;2023-12-04T14:25:07;12.68;;;6.10;;
43146;SDS011;28752;48.266;7.402;2023-12-04T14:27:33;11.35;;;5.55;;
43146;SDS011;28752;48.266;7.402;2023-12-04T14:29:58;10.87;;;5.80;;
43146;SDS011;28752;48.266;7.402;2023-12-04T14:32:24;10.17;;;5.40;;
43146;SDS011;28752;48.266;7.402;2023-12-04T14:34:49;12.43;;;6.30;;
43146;SDS011;28752;48.266;7.402;2023-12-04T14:37:14;12.37;;;6.03;;
43146;SDS011;28752;48.266;7.402;2023-12-04T14:39:40;12.73;;;6.18;;